Boonville, New York
Current Conditions -  °F | °C
As of 8:53 PM on Sunday 21 Dec 2014 (Local Time) from KRME Reporting Station
Overcast Overcast  
Wind Chill: 26°   Ceiling: 2700
Heat Index: 31°   Visibility: 10mi
Dew Point: 23°   Wind: 5mph
Humidity: 72%   Direction: 100°E
Pressure: 30.36"   Gusts: NA
Location:  43.48°N, 75.34°W
Report Text: KRME 220153Z 10004KT 10SM OVC027 M01/M05 A3036 RMK AO2 SLP285 T10061050
Loading
Personal Weather Stations






























Interactive Weather Map New forecast layout! Learn more

10-Day Weather Forecast

Advertisements
Track Severe Weather on mobile